OKBK/KWI METAR and TAF weather

Enter ICAO airport designator
Station Type Date Time Source
OKBK METAR 2020/07/05 15:00 UTC NOAA

OKBK 051500Z 34014KT 5000 -DU SKC 46/08 Q0991 NOSIG


Station Type Date Time Source
OKBK Decoded METAR 2020/07/05 15:00 UTC NOAA

Kuwait Internationalairport, Kuwait (OKBK) 29-13N 047-59E 55M
Jul 05, 2020 - 11:00 AM EDT / 2020.07.05 1500 UTC
Wind: from the NNW (340 degrees) at 16 MPH (14 KT):0
Visibility: 3 mile(s):0
Sky conditions: clear
Weather: light widespread dust
Temperature: 114 F (46 C)
Dew Point: 46 F (8 C)
Relative Humidity: 10%
Pressure (altimeter): 29.26 in. Hg (0991 hPa)
ob: OKBK 051500Z 34014KT 5000 -DU SKC 46/08 Q0991 NOSIG
cycle: 15

Station Type Date Time Source
OKBK TAF 2020/07/05 12:45 UTC NOAA

TAF TAF OKBK 051045Z 0512/0618 33015G30KT 7000 NSC
TEMPO 0512/0518 2000 BLDU

Example: see airport list